sensor_id;sensor_type;location;lat;lon;timestamp;P1;durP1;ratioP1;P2;durP2;ratioP2
23702;SDS011;12030;50.376;8.762;2023-07-22T00:02:22;6.73;;;3.70;;
23702;SDS011;12030;50.376;8.762;2023-07-22T00:04:51;6.40;;;3.60;;
23702;SDS011;12030;50.376;8.762;2023-07-22T00:07:17;6.93;;;4.00;;
23702;SDS011;12030;50.376;8.762;2023-07-22T00:09:43;31.00;;;4.87;;
23702;SDS011;12030;50.376;8.762;2023-07-22T00:12:09;48.27;;;5.93;;
23702;SDS011;12030;50.376;8.762;2023-07-22T00:14:39;37.73;;;5.93;;
23702;SDS011;12030;50.376;8.762;2023-07-22T00:17:06;26.87;;;5.17;;
23702;SDS011;12030;50.376;8.762;2023-07-22T00:19:32;36.97;;;6.60;;
23702;SDS011;12030;50.376;8.762;2023-07-22T00:21:58;40.70;;;6.97;;
23702;SDS011;12030;50.376;8.762;2023-07-22T00:24:24;30.07;;;4.33;;
23702;SDS011;12030;50.376;8.762;2023-07-22T00:26:50;27.63;;;4.77;;
23702;SDS011;12030;50.376;8.762;2023-07-22T00:29:16;26.87;;;4.60;;
23702;SDS011;12030;50.376;8.762;2023-07-22T00:31:42;57.23;;;7.63;;
23702;SDS011;12030;50.376;8.762;2023-07-22T00:34:07;32.03;;;4.73;;
23702;SDS011;12030;50.376;8.762;2023-07-22T00:36:33;45.27;;;5.30;;
23702;SDS011;12030;50.376;8.762;2023-07-22T00:38:59;29.67;;;6.50;;
23702;SDS011;12030;50.376;8.762;2023-07-22T00:41:26;40.03;;;5.60;;
23702;SDS011;12030;50.376;8.762;2023-07-22T00:43:52;22.90;;;4.93;;
23702;SDS011;12030;50.376;8.762;2023-07-22T00:46:17;20.50;;;4.60;;
23702;SDS011;12030;50.376;8.762;2023-07-22T00:48:43;22.20;;;5.00;;
23702;SDS011;12030;50.376;8.762;2023-07-22T00:51:08;27.00;;;4.13;;
23702;SDS011;12030;50.376;8.762;2023-07-22T00:53:34;20.27;;;4.30;;
23702;SDS011;12030;50.376;8.762;2023-07-22T00:56:00;20.93;;;4.27;;
23702;SDS011;12030;50.376;8.762;2023-07-22T00:58:25;18.37;;;4.17;;
23702;SDS011;12030;50.376;8.762;2023-07-22T01:00:51;9.37;;;4.23;;
23702;SDS011;12030;50.376;8.762;2023-07-22T01:03:17;7.37;;;3.63;;
23702;SDS011;12030;50.376;8.762;2023-07-22T01:05:43;32.50;;;3.10;;
23702;SDS011;12030;50.376;8.762;2023-07-22T01:08:12;20.87;;;2.83;;
23702;SDS011;12030;50.376;8.762;2023-07-22T01:10:38;15.07;;;1.13;;
23702;SDS011;12030;50.376;8.762;2023-07-22T01:13:04;15.53;;;1.90;;
23702;SDS011;12030;50.376;8.762;2023-07-22T01:15:29;11.33;;;2.40;;
23702;SDS011;12030;50.376;8.762;2023-07-22T01:17:55;8.53;;;2.63;;
23702;SDS011;12030;50.376;8.762;2023-07-22T01:20:26;9.67;;;2.83;;
23702;SDS011;12030;50.376;8.762;2023-07-22T01:22:55;13.70;;;2.80;;
23702;SDS011;12030;50.376;8.762;2023-07-22T01:25:21;13.57;;;2.63;;
23702;SDS011;12030;50.376;8.762;2023-07-22T01:27:47;10.90;;;2.63;;
23702;SDS011;12030;50.376;8.762;2023-07-22T01:30:14;27.10;;;3.63;;
23702;SDS011;12030;50.376;8.762;2023-07-22T01:32:40;9.03;;;3.23;;
23702;SDS011;12030;50.376;8.762;2023-07-22T01:35:06;14.77;;;2.77;;
23702;SDS011;12030;50.376;8.762;2023-07-22T01:37:32;16.50;;;2.93;;
23702;SDS011;12030;50.376;8.762;2023-07-22T01:39:58;3.30;;;2.40;;
23702;SDS011;12030;50.376;8.762;2023-07-22T01:42:24;8.67;;;3.47;;
23702;SDS011;12030;50.376;8.762;2023-07-22T01:44:50;6.00;;;2.73;;
23702;SDS011;12030;50.376;8.762;2023-07-22T01:47:15;11.60;;;2.93;;
23702;SDS011;12030;50.376;8.762;2023-07-22T01:49:41;9.00;;;3.07;;
23702;SDS011;12030;50.376;8.762;2023-07-22T01:52:07;8.60;;;2.27;;
23702;SDS011;12030;50.376;8.762;2023-07-22T01:54:32;11.03;;;2.70;;
23702;SDS011;12030;50.376;8.762;2023-07-22T01:56:58;17.37;;;3.93;;
23702;SDS011;12030;50.376;8.762;2023-07-22T01:59:24;13.27;;;3.30;;
23702;SDS011;12030;50.376;8.762;2023-07-22T02:01:50;4.13;;;2.00;;
23702;SDS011;12030;50.376;8.762;2023-07-22T02:04:16;10.17;;;2.60;;
23702;SDS011;12030;50.376;8.762;2023-07-22T02:06:42;19.37;;;2.63;;
23702;SDS011;12030;50.376;8.762;2023-07-22T02:09:07;26.47;;;1.63;;
23702;SDS011;12030;50.376;8.762;2023-07-22T02:11:36;4.07;;;1.10;;
23702;SDS011;12030;50.376;8.762;2023-07-22T02:14:02;14.40;;;1.90;;
23702;SDS011;12030;50.376;8.762;2023-07-22T02:16:31;5.73;;;1.50;;
23702;SDS011;12030;50.376;8.762;2023-07-22T02:19:01;18.93;;;2.13;;
23702;SDS011;12030;50.376;8.762;2023-07-22T02:21:27;9.47;;;1.47;;
23702;SDS011;12030;50.376;8.762;2023-07-22T02:23:53;6.17;;;1.63;;
23702;SDS011;12030;50.376;8.762;2023-07-22T02:26:18;10.87;;;1.83;;
23702;SDS011;12030;50.376;8.762;2023-07-22T02:28:44;3.03;;;1.40;;
23702;SDS011;12030;50.376;8.762;2023-07-22T02:31:09;4.80;;;1.50;;
23702;SDS011;12030;50.376;8.762;2023-07-22T02:33:35;4.57;;;1.50;;
23702;SDS011;12030;50.376;8.762;2023-07-22T02:36:01;5.57;;;1.50;;
23702;SDS011;12030;50.376;8.762;2023-07-22T02:38:27;6.47;;;2.10;;
23702;SDS011;12030;50.376;8.762;2023-07-22T02:40:52;7.10;;;2.20;;
23702;SDS011;12030;50.376;8.762;2023-07-22T02:43:18;11.43;;;1.70;;
23702;SDS011;12030;50.376;8.762;2023-07-22T02:45:43;8.77;;;1.80;;
23702;SDS011;12030;50.376;8.762;2023-07-22T02:48:09;6.50;;;1.90;;
23702;SDS011;12030;50.376;8.762;2023-07-22T02:50:34;11.87;;;2.20;;
23702;SDS011;12030;50.376;8.762;2023-07-22T02:53:01;5.53;;;2.33;;
23702;SDS011;12030;50.376;8.762;2023-07-22T02:55:27;10.73;;;2.20;;
23702;SDS011;12030;50.376;8.762;2023-07-22T02:57:53;5.37;;;2.20;;
23702;SDS011;12030;50.376;8.762;2023-07-22T03:00:19;6.93;;;2.20;;
23702;SDS011;12030;50.376;8.762;2023-07-22T03:02:51;7.03;;;2.07;;
23702;SDS011;12030;50.376;8.762;2023-07-22T03:05:19;14.50;;;3.03;;
23702;SDS011;12030;50.376;8.762;2023-07-22T03:07:45;13.10;;;2.40;;
23702;SDS011;12030;50.376;8.762;2023-07-22T03:10:10;7.93;;;3.00;;
23702;SDS011;12030;50.376;8.762;2023-07-22T03:12:36;14.93;;;4.00;;
23702;SDS011;12030;50.376;8.762;2023-07-22T03:15:03;10.33;;;2.50;;
23702;SDS011;12030;50.376;8.762;2023-07-22T03:17:29;10.77;;;3.50;;
23702;SDS011;12030;50.376;8.762;2023-07-22T03:19:55;8.80;;;3.93;;
23702;SDS011;12030;50.376;8.762;2023-07-22T03:22:20;7.50;;;3.20;;
23702;SDS011;12030;50.376;8.762;2023-07-22T03:24:46;18.67;;;3.93;;
23702;SDS011;12030;50.376;8.762;2023-07-22T03:27:12;20.40;;;4.50;;
23702;SDS011;12030;50.376;8.762;2023-07-22T03:29:40;12.43;;;3.80;;
23702;SDS011;12030;50.376;8.762;2023-07-22T03:32:06;13.27;;;4.23;;
23702;SDS011;12030;50.376;8.762;2023-07-22T03:34:32;9.10;;;4.70;;
23702;SDS011;12030;50.376;8.762;2023-07-22T03:36:58;9.30;;;5.30;;
23702;SDS011;12030;50.376;8.762;2023-07-22T03:39:24;13.60;;;6.00;;
23702;SDS011;12030;50.376;8.762;2023-07-22T03:41:49;12.10;;;6.53;;
23702;SDS011;12030;50.376;8.762;2023-07-22T03:44:15;11.60;;;6.43;;
23702;SDS011;12030;50.376;8.762;2023-07-22T03:46:40;12.80;;;5.80;;
23702;SDS011;12030;50.376;8.762;2023-07-22T03:49:06;22.50;;;6.00;;
23702;SDS011;12030;50.376;8.762;2023-07-22T03:51:32;17.93;;;6.10;;
23702;SDS011;12030;50.376;8.762;2023-07-22T03:53:58;26.00;;;6.13;;
23702;SDS011;12030;50.376;8.762;2023-07-22T03:56:23;18.93;;;5.27;;
23702;SDS011;12030;50.376;8.762;2023-07-22T03:58:49;10.93;;;5.23;;
23702;SDS011;12030;50.376;8.762;2023-07-22T04:01:15;36.00;;;7.70;;
23702;SDS011;12030;50.376;8.762;2023-07-22T04:03:41;34.97;;;5.43;;
23702;SDS011;12030;50.376;8.762;2023-07-22T04:06:06;31.03;;;5.47;;
23702;SDS011;12030;50.376;8.762;2023-07-22T04:08:32;21.70;;;5.47;;
23702;SDS011;12030;50.376;8.762;2023-07-22T04:10:57;17.13;;;5.00;;
23702;SDS011;12030;50.376;8.762;2023-07-22T04:13:23;23.70;;;5.10;;
23702;SDS011;12030;50.376;8.762;2023-07-22T04:15:50;25.23;;;3.43;;
23702;SDS011;12030;50.376;8.762;2023-07-22T04:18:19;12.03;;;3.23;;
23702;SDS011;12030;50.376;8.762;2023-07-22T04:20:46;8.83;;;3.57;;
23702;SDS011;12030;50.376;8.762;2023-07-22T04:23:15;9.13;;;3.20;;
23702;SDS011;12030;50.376;8.762;2023-07-22T04:25:41;19.63;;;4.30;;
23702;SDS011;12030;50.376;8.762;2023-07-22T04:28:07;9.60;;;3.03;;
23702;SDS011;12030;50.376;8.762;2023-07-22T04:30:34;13.07;;;3.13;;
23702;SDS011;12030;50.376;8.762;2023-07-22T04:33:00;10.37;;;4.17;;
23702;SDS011;12030;50.376;8.762;2023-07-22T04:35:25;12.63;;;4.33;;
23702;SDS011;12030;50.376;8.762;2023-07-22T04:37:51;12.87;;;3.80;;
23702;SDS011;12030;50.376;8.762;2023-07-22T04:40:16;16.77;;;4.63;;
23702;SDS011;12030;50.376;8.762;2023-07-22T04:42:43;10.13;;;5.10;;
23702;SDS011;12030;50.376;8.762;2023-07-22T04:45:10;18.77;;;5.17;;
23702;SDS011;12030;50.376;8.762;2023-07-22T04:47:36;13.43;;;6.00;;
23702;SDS011;12030;50.376;8.762;2023-07-22T04:50:03;9.60;;;5.53;;
23702;SDS011;12030;50.376;8.762;2023-07-22T04:52:32;16.90;;;6.60;;
23702;SDS011;12030;50.376;8.762;2023-07-22T04:54:57;13.40;;;6.70;;
23702;SDS011;12030;50.376;8.762;2023-07-22T04:57:23;15.77;;;7.37;;
23702;SDS011;12030;50.376;8.762;2023-07-22T04:59:48;13.40;;;8.07;;
23702;SDS011;12030;50.376;8.762;2023-07-22T05:02:14;12.43;;;8.47;;
23702;SDS011;12030;50.376;8.762;2023-07-22T05:04:39;9.77;;;7.10;;
23702;SDS011;12030;50.376;8.762;2023-07-22T05:07:05;13.27;;;8.40;;
23702;SDS011;12030;50.376;8.762;2023-07-22T05:09:30;13.43;;;7.93;;
23702;SDS011;12030;50.376;8.762;2023-07-22T05:11:56;14.70;;;7.70;;
23702;SDS011;12030;50.376;8.762;2023-07-22T05:14:21;13.60;;;8.17;;
23702;SDS011;12030;50.376;8.762;2023-07-22T05:16:48;9.60;;;7.83;;
23702;SDS011;12030;50.376;8.762;2023-07-22T05:19:13;16.97;;;8.77;;
23702;SDS011;12030;50.376;8.762;2023-07-22T05:21:39;12.87;;;7.93;;
23702;SDS011;12030;50.376;8.762;2023-07-22T05:24:04;14.80;;;8.23;;
23702;SDS011;12030;50.376;8.762;2023-07-22T05:26:30;13.17;;;8.70;;
23702;SDS011;12030;50.376;8.762;2023-07-22T05:28:56;12.53;;;8.33;;
23702;SDS011;12030;50.376;8.762;2023-07-22T05:31:21;15.23;;;8.50;;
23702;SDS011;12030;50.376;8.762;2023-07-22T05:33:47;15.67;;;8.53;;
23702;SDS011;12030;50.376;8.762;2023-07-22T05:36:13;13.17;;;8.20;;
23702;SDS011;12030;50.376;8.762;2023-07-22T05:38:38;21.53;;;8.40;;
23702;SDS011;12030;50.376;8.762;2023-07-22T05:41:04;14.50;;;8.80;;
23702;SDS011;12030;50.376;8.762;2023-07-22T05:43:29;16.87;;;8.20;;
23702;SDS011;12030;50.376;8.762;2023-07-22T05:45:55;15.57;;;7.47;;
23702;SDS011;12030;50.376;8.762;2023-07-22T05:48:20;17.60;;;8.47;;
23702;SDS011;12030;50.376;8.762;2023-07-22T05:50:46;11.93;;;7.67;;
23702;SDS011;12030;50.376;8.762;2023-07-22T05:53:12;10.97;;;8.40;;
23702;SDS011;12030;50.376;8.762;2023-07-22T05:55:38;12.27;;;8.13;;
23702;SDS011;12030;50.376;8.762;2023-07-22T05:58:04;11.03;;;8.33;;
23702;SDS011;12030;50.376;8.762;2023-07-22T06:00:33;13.80;;;8.30;;
23702;SDS011;12030;50.376;8.762;2023-07-22T06:02:59;14.67;;;9.77;;
23702;SDS011;12030;50.376;8.762;2023-07-22T06:05:25;17.87;;;9.10;;
23702;SDS011;12030;50.376;8.762;2023-07-22T06:07:50;12.67;;;8.50;;
23702;SDS011;12030;50.376;8.762;2023-07-22T06:10:16;13.13;;;8.87;;
23702;SDS011;12030;50.376;8.762;2023-07-22T06:12:41;14.63;;;9.40;;
23702;SDS011;12030;50.376;8.762;2023-07-22T06:15:07;13.03;;;9.40;;
23702;SDS011;12030;50.376;8.762;2023-07-22T06:17:33;10.70;;;8.37;;
23702;SDS011;12030;50.376;8.762;2023-07-22T06:19:59;14.20;;;8.27;;
23702;SDS011;12030;50.376;8.762;2023-07-22T06:22:25;12.27;;;9.17;;
23702;SDS011;12030;50.376;8.762;2023-07-22T06:24:50;12.17;;;8.00;;
23702;SDS011;12030;50.376;8.762;2023-07-22T06:27:16;11.33;;;8.60;;
23702;SDS011;12030;50.376;8.762;2023-07-22T06:29:41;15.53;;;8.53;;
23702;SDS011;12030;50.376;8.762;2023-07-22T06:32:07;10.57;;;8.53;;
23702;SDS011;12030;50.376;8.762;2023-07-22T06:34:33;14.20;;;9.07;;
23702;SDS011;12030;50.376;8.762;2023-07-22T06:36:58;12.17;;;8.63;;
23702;SDS011;12030;50.376;8.762;2023-07-22T06:39:23;13.50;;;8.70;;
23702;SDS011;12030;50.376;8.762;2023-07-22T06:41:49;9.53;;;8.23;;
23702;SDS011;12030;50.376;8.762;2023-07-22T06:44:14;14.50;;;8.80;;
23702;SDS011;12030;50.376;8.762;2023-07-22T06:46:40;10.67;;;8.77;;
23702;SDS011;12030;50.376;8.762;2023-07-22T06:49:06;9.23;;;7.63;;
23702;SDS011;12030;50.376;8.762;2023-07-22T06:51:32;12.43;;;8.63;;
23702;SDS011;12030;50.376;8.762;2023-07-22T06:53:57;11.43;;;8.20;;
23702;SDS011;12030;50.376;8.762;2023-07-22T06:56:23;12.23;;;7.93;;
23702;SDS011;12030;50.376;8.762;2023-07-22T06:58:48;10.97;;;7.87;;
23702;SDS011;12030;50.376;8.762;2023-07-22T07:01:16;9.83;;;7.80;;
23702;SDS011;12030;50.376;8.762;2023-07-22T07:03:41;8.00;;;7.20;;
23702;SDS011;12030;50.376;8.762;2023-07-22T07:06:07;10.37;;;7.30;;
23702;SDS011;12030;50.376;8.762;2023-07-22T07:08:32;9.87;;;8.33;;
23702;SDS011;12030;50.376;8.762;2023-07-22T07:10:59;9.83;;;7.70;;
23702;SDS011;12030;50.376;8.762;2023-07-22T07:13:25;8.33;;;7.60;;
23702;SDS011;12030;50.376;8.762;2023-07-22T07:15:50;13.97;;;7.87;;
23702;SDS011;12030;50.376;8.762;2023-07-22T07:18:16;9.33;;;7.37;;
23702;SDS011;12030;50.376;8.762;2023-07-22T07:20:42;10.57;;;7.10;;
23702;SDS011;12030;50.376;8.762;2023-07-22T07:23:08;8.97;;;7.33;;
23702;SDS011;12030;50.376;8.762;2023-07-22T07:25:34;7.50;;;6.70;;
23702;SDS011;12030;50.376;8.762;2023-07-22T07:27:59;8.67;;;7.10;;
23702;SDS011;12030;50.376;8.762;2023-07-22T07:30:25;7.67;;;6.27;;
23702;SDS011;12030;50.376;8.762;2023-07-22T07:32:50;6.50;;;5.73;;
23702;SDS011;12030;50.376;8.762;2023-07-22T07:35:16;8.83;;;6.53;;
23702;SDS011;12030;50.376;8.762;2023-07-22T07:37:41;6.93;;;6.03;;
23702;SDS011;12030;50.376;8.762;2023-07-22T07:40:07;9.33;;;5.67;;
23702;SDS011;12030;50.376;8.762;2023-07-22T07:42:33;6.93;;;5.63;;
23702;SDS011;12030;50.376;8.762;2023-07-22T07:44:59;9.43;;;6.20;;
23702;SDS011;12030;50.376;8.762;2023-07-22T07:47:24;6.20;;;5.53;;
23702;SDS011;12030;50.376;8.762;2023-07-22T07:49:50;11.03;;;5.83;;
23702;SDS011;12030;50.376;8.762;2023-07-22T07:52:15;9.03;;;5.07;;
23702;SDS011;12030;50.376;8.762;2023-07-22T07:54:41;5.83;;;4.77;;
23702;SDS011;12030;50.376;8.762;2023-07-22T07:57:06;5.63;;;4.90;;
23702;SDS011;12030;50.376;8.762;2023-07-22T07:59:32;7.13;;;5.57;;
23702;SDS011;12030;50.376;8.762;2023-07-22T08:01:57;7.67;;;5.80;;
23702;SDS011;12030;50.376;8.762;2023-07-22T08:04:23;5.47;;;4.93;;
23702;SDS011;12030;50.376;8.762;2023-07-22T08:06:49;10.73;;;5.47;;
23702;SDS011;12030;50.376;8.762;2023-07-22T08:09:14;6.50;;;5.53;;
23702;SDS011;12030;50.376;8.762;2023-07-22T08:11:44;6.40;;;5.20;;
23702;SDS011;12030;50.376;8.762;2023-07-22T08:14:10;6.30;;;4.97;;
23702;SDS011;12030;50.376;8.762;2023-07-22T08:16:36;5.60;;;4.67;;
23702;SDS011;12030;50.376;8.762;2023-07-22T08:19:02;5.40;;;4.80;;
23702;SDS011;12030;50.376;8.762;2023-07-22T08:21:27;6.23;;;4.57;;
23702;SDS011;12030;50.376;8.762;2023-07-22T08:23:53;10.87;;;4.23;;
23702;SDS011;12030;50.376;8.762;2023-07-22T08:26:18;5.10;;;4.50;;
23702;SDS011;12030;50.376;8.762;2023-07-22T08:28:46;4.53;;;3.90;;
23702;SDS011;12030;50.376;8.762;2023-07-22T08:31:12;5.00;;;4.27;;
23702;SDS011;12030;50.376;8.762;2023-07-22T08:33:37;6.07;;;4.87;;
23702;SDS011;12030;50.376;8.762;2023-07-22T08:36:03;6.50;;;4.50;;
23702;SDS011;12030;50.376;8.762;2023-07-22T08:38:29;8.27;;;4.70;;
23702;SDS011;12030;50.376;8.762;2023-07-22T08:40:54;6.28;;;4.32;;
23702;SDS011;12030;50.376;8.762;2023-07-22T08:43:20;5.78;;;4.53;;
23702;SDS011;12030;50.376;8.762;2023-07-22T08:45:47;5.80;;;4.70;;
23702;SDS011;12030;50.376;8.762;2023-07-22T08:48:15;7.70;;;4.95;;
23702;SDS011;12030;50.376;8.762;2023-07-22T08:50:49;5.07;;;4.50;;
23702;SDS011;12030;50.376;8.762;2023-07-22T08:53:18;8.23;;;5.50;;
23702;SDS011;12030;50.376;8.762;2023-07-22T08:55:48;7.13;;;4.80;;
23702;SDS011;12030;50.376;8.762;2023-07-22T08:58:14;7.45;;;5.40;;
23702;SDS011;12030;50.376;8.762;2023-07-22T09:00:41;6.18;;;4.82;;
23702;SDS011;12030;50.376;8.762;2023-07-22T09:03:07;5.35;;;4.10;;
23702;SDS011;12030;50.376;8.762;2023-07-22T09:05:34;5.57;;;4.50;;
23702;SDS011;12030;50.376;8.762;2023-07-22T09:08:04;7.60;;;4.30;;
23702;SDS011;12030;50.376;8.762;2023-07-22T09:10:31;6.97;;;4.40;;
23702;SDS011;12030;50.376;8.762;2023-07-22T09:12:59;6.07;;;4.78;;
23702;SDS011;12030;50.376;8.762;2023-07-22T09:15:25;7.00;;;4.40;;
23702;SDS011;12030;50.376;8.762;2023-07-22T09:17:51;9.23;;;4.20;;
23702;SDS011;12030;50.376;8.762;2023-07-22T09:20:17;6.20;;;4.10;;
23702;SDS011;12030;50.376;8.762;2023-07-22T09:22:48;5.60;;;4.50;;
23702;SDS011;12030;50.376;8.762;2023-07-22T09:25:19;8.48;;;3.90;;
23702;SDS011;12030;50.376;8.762;2023-07-22T09:27:49;4.40;;;4.00;;
23702;SDS011;12030;50.376;8.762;2023-07-22T09:30:38;7.18;;;4.75;;
23702;SDS011;12030;50.376;8.762;2023-07-22T09:33:05;6.55;;;4.50;;
23702;SDS011;12030;50.376;8.762;2023-07-22T09:35:45;9.05;;;4.93;;
23702;SDS011;12030;50.376;8.762;2023-07-22T09:38:15;6.28;;;4.57;;
23702;SDS011;12030;50.376;8.762;2023-07-22T09:40:48;7.65;;;4.57;;
23702;SDS011;12030;50.376;8.762;2023-07-22T09:43:13;24.13;;;5.95;;
23702;SDS011;12030;50.376;8.762;2023-07-22T09:45:39;22.87;;;6.10;;
23702;SDS011;12030;50.376;8.762;2023-07-22T09:48:04;22.67;;;5.90;;
23702;SDS011;12030;50.376;8.762;2023-07-22T09:50:30;6.57;;;4.50;;
23702;SDS011;12030;50.376;8.762;2023-07-22T09:52:57;7.25;;;4.45;;
23702;SDS011;12030;50.376;8.762;2023-07-22T09:55:27;6.15;;;4.45;;
23702;SDS011;12030;50.376;8.762;2023-07-22T09:58:03;11.40;;;5.07;;
23702;SDS011;12030;50.376;8.762;2023-07-22T10:00:39;5.93;;;4.07;;
23702;SDS011;12030;50.376;8.762;2023-07-22T10:03:12;4.90;;;4.28;;
23702;SDS011;12030;50.376;8.762;2023-07-22T10:05:40;7.23;;;4.70;;
23702;SDS011;12030;50.376;8.762;2023-07-22T10:08:07;6.30;;;3.80;;
23702;SDS011;12030;50.376;8.762;2023-07-22T10:10:35;4.45;;;3.60;;
23702;SDS011;12030;50.376;8.762;2023-07-22T10:13:03;6.50;;;3.65;;
23702;SDS011;12030;50.376;8.762;2023-07-22T10:15:29;5.20;;;3.70;;
23702;SDS011;12030;50.376;8.762;2023-07-22T10:17:59;6.30;;;3.88;;
23702;SDS011;12030;50.376;8.762;2023-07-22T10:20:26;7.63;;;4.03;;
23702;SDS011;12030;50.376;8.762;2023-07-22T10:22:53;5.05;;;3.97;;
23702;SDS011;12030;50.376;8.762;2023-07-22T10:25:19;6.17;;;3.63;;
23702;SDS011;12030;50.376;8.762;2023-07-22T10:27:46;6.32;;;3.70;;
23702;SDS011;12030;50.376;8.762;2023-07-22T10:30:14;5.28;;;3.63;;
23702;SDS011;12030;50.376;8.762;2023-07-22T10:32:41;6.67;;;3.80;;
23702;SDS011;12030;50.376;8.762;2023-07-22T10:35:12;7.93;;;4.03;;
23702;SDS011;12030;50.376;8.762;2023-07-22T10:38:08;4.40;;;3.50;;
23702;SDS011;12030;50.376;8.762;2023-07-22T10:40:59;4.88;;;3.13;;
23702;SDS011;12030;50.376;8.762;2023-07-22T10:43:30;6.13;;;3.40;;
23702;SDS011;12030;50.376;8.762;2023-07-22T10:46:00;5.28;;;3.15;;
23702;SDS011;12030;50.376;8.762;2023-07-22T10:48:40;5.07;;;3.40;;
23702;SDS011;12030;50.376;8.762;2023-07-22T10:51:10;4.83;;;3.00;;
23702;SDS011;12030;50.376;8.762;2023-07-22T10:53:41;3.30;;;3.00;;
23702;SDS011;12030;50.376;8.762;2023-07-22T11:06:32;4.50;;;3.10;;
23702;SDS011;12030;50.376;8.762;2023-07-22T11:08:59;4.40;;;2.67;;
23702;SDS011;12030;50.376;8.762;2023-07-22T11:11:35;4.10;;;2.97;;
23702;SDS011;12030;50.376;8.762;2023-07-22T11:14:20;5.25;;;2.63;;
23702;SDS011;12030;50.376;8.762;2023-07-22T11:16:47;3.17;;;2.87;;
23702;SDS011;12030;50.376;8.762;2023-07-22T11:19:17;3.83;;;3.10;;
23702;SDS011;12030;50.376;8.762;2023-07-22T11:21:45;3.42;;;2.40;;
23702;SDS011;12030;50.376;8.762;2023-07-22T11:24:12;4.80;;;2.70;;
23702;SDS011;12030;50.376;8.762;2023-07-22T11:26:38;3.40;;;2.58;;
23702;SDS011;12030;50.376;8.762;2023-07-22T11:29:05;3.40;;;2.50;;
23702;SDS011;12030;50.376;8.762;2023-07-22T11:31:36;5.32;;;2.70;;
23702;SDS011;12030;50.376;8.762;2023-07-22T11:34:10;5.22;;;2.70;;
23702;SDS011;12030;50.376;8.762;2023-07-22T11:36:54;3.08;;;2.60;;
23702;SDS011;12030;50.376;8.762;2023-07-22T11:39:21;3.43;;;2.77;;
23702;SDS011;12030;50.376;8.762;2023-07-22T11:41:49;4.18;;;2.88;;
23702;SDS011;12030;50.376;8.762;2023-07-22T11:44:16;6.37;;;2.60;;
23702;SDS011;12030;50.376;8.762;2023-07-22T11:52:00;3.90;;;2.30;;
23702;SDS011;12030;50.376;8.762;2023-07-22T11:54:26;5.53;;;2.80;;
23702;SDS011;12030;50.376;8.762;2023-07-22T11:56:54;4.50;;;2.55;;
23702;SDS011;12030;50.376;8.762;2023-07-22T11:59:37;4.60;;;2.40;;
23702;SDS011;12030;50.376;8.762;2023-07-22T12:02:04;3.83;;;2.42;;
23702;SDS011;12030;50.376;8.762;2023-07-22T12:04:30;6.70;;;2.60;;
23702;SDS011;12030;50.376;8.762;2023-07-22T12:06:58;2.45;;;2.20;;
23702;SDS011;12030;50.376;8.762;2023-07-22T12:09:23;3.08;;;2.70;;
23702;SDS011;12030;50.376;8.762;2023-07-22T12:11:54;3.95;;;2.63;;
23702;SDS011;12030;50.376;8.762;2023-07-22T12:14:22;5.80;;;3.03;;
23702;SDS011;12030;50.376;8.762;2023-07-22T12:16:48;5.73;;;2.80;;
23702;SDS011;12030;50.376;8.762;2023-07-22T12:19:21;5.93;;;2.95;;
23702;SDS011;12030;50.376;8.762;2023-07-22T12:21:47;4.97;;;2.72;;
23702;SDS011;12030;50.376;8.762;2023-07-22T12:24:13;4.53;;;2.78;;
23702;SDS011;12030;50.376;8.762;2023-07-22T12:26:39;3.57;;;2.70;;
23702;SDS011;12030;50.376;8.762;2023-07-22T12:29:05;4.60;;;2.60;;
23702;SDS011;12030;50.376;8.762;2023-07-22T12:31:30;4.23;;;2.50;;
23702;SDS011;12030;50.376;8.762;2023-07-22T12:33:56;4.03;;;2.57;;
23702;SDS011;12030;50.376;8.762;2023-07-22T12:36:22;5.03;;;2.83;;
23702;SDS011;12030;50.376;8.762;2023-07-22T12:38:48;4.97;;;2.90;;
23702;SDS011;12030;50.376;8.762;2023-07-22T12:41:13;7.03;;;2.80;;
23702;SDS011;12030;50.376;8.762;2023-07-22T12:43:39;3.45;;;2.47;;
23702;SDS011;12030;50.376;8.762;2023-07-22T12:46:04;5.40;;;2.90;;
23702;SDS011;12030;50.376;8.762;2023-07-22T12:48:30;4.87;;;2.43;;
23702;SDS011;12030;50.376;8.762;2023-07-22T12:50:55;6.30;;;2.80;;
23702;SDS011;12030;50.376;8.762;2023-07-22T12:53:21;4.10;;;2.87;;
23702;SDS011;12030;50.376;8.762;2023-07-22T12:55:46;7.83;;;3.03;;
23702;SDS011;12030;50.376;8.762;2023-07-22T12:58:13;3.57;;;2.70;;
23702;SDS011;12030;50.376;8.762;2023-07-22T13:00:39;6.15;;;2.92;;
23702;SDS011;12030;50.376;8.762;2023-07-22T13:03:04;13.27;;;3.03;;
23702;SDS011;12030;50.376;8.762;2023-07-22T13:05:30;3.83;;;2.60;;
23702;SDS011;12030;50.376;8.762;2023-07-22T13:07:55;3.43;;;2.70;;
23702;SDS011;12030;50.376;8.762;2023-07-22T13:10:22;4.50;;;2.63;;
23702;SDS011;12030;50.376;8.762;2023-07-22T13:12:48;5.73;;;2.70;;
23702;SDS011;12030;50.376;8.762;2023-07-22T13:15:13;4.00;;;3.00;;
23702;SDS011;12030;50.376;8.762;2023-07-22T13:17:39;4.20;;;2.53;;
23702;SDS011;12030;50.376;8.762;2023-07-22T13:20:05;3.90;;;2.77;;
23702;SDS011;12030;50.376;8.762;2023-07-22T13:22:32;3.95;;;2.50;;
23702;SDS011;12030;50.376;8.762;2023-07-22T13:24:58;4.88;;;2.50;;
23702;SDS011;12030;50.376;8.762;2023-07-22T13:27:23;3.55;;;2.63;;
23702;SDS011;12030;50.376;8.762;2023-07-22T13:29:49;4.38;;;2.85;;
23702;SDS011;12030;50.376;8.762;2023-07-22T13:32:14;3.95;;;2.88;;
23702;SDS011;12030;50.376;8.762;2023-07-22T13:34:40;7.15;;;2.95;;
23702;SDS011;12030;50.376;8.762;2023-07-22T13:37:05;4.50;;;2.70;;
23702;SDS011;12030;50.376;8.762;2023-07-22T13:39:31;4.88;;;2.65;;
23702;SDS011;12030;50.376;8.762;2023-07-22T13:41:57;3.55;;;2.70;;
23702;SDS011;12030;50.376;8.762;2023-07-22T13:44:22;3.55;;;2.80;;
23702;SDS011;12030;50.376;8.762;2023-07-22T13:46:48;4.07;;;2.67;;
23702;SDS011;12030;50.376;8.762;2023-07-22T13:49:13;3.83;;;2.70;;
23702;SDS011;12030;50.376;8.762;2023-07-22T13:51:40;3.83;;;3.15;;
23702;SDS011;12030;50.376;8.762;2023-07-22T13:54:06;3.38;;;2.70;;
23702;SDS011;12030;50.376;8.762;2023-07-22T13:56:31;3.60;;;2.63;;
23702;SDS011;12030;50.376;8.762;2023-07-22T13:58:57;3.17;;;2.78;;
23702;SDS011;12030;50.376;8.762;2023-07-22T14:01:24;5.05;;;2.58;;
23702;SDS011;12030;50.376;8.762;2023-07-22T14:03:49;4.50;;;2.60;;
23702;SDS011;12030;50.376;8.762;2023-07-22T14:06:15;4.60;;;2.72;;
23702;SDS011;12030;50.376;8.762;2023-07-22T14:08:40;4.20;;;2.55;;
23702;SDS011;12030;50.376;8.762;2023-07-22T14:11:06;4.85;;;2.65;;
23702;SDS011;12030;50.376;8.762;2023-07-22T14:13:33;5.40;;;2.40;;
23702;SDS011;12030;50.376;8.762;2023-07-22T14:15:58;3.43;;;2.73;;
23702;SDS011;12030;50.376;8.762;2023-07-22T14:18:24;4.50;;;2.77;;
23702;SDS011;12030;50.376;8.762;2023-07-22T14:20:49;3.13;;;2.40;;
23702;SDS011;12030;50.376;8.762;2023-07-22T14:23:15;3.20;;;2.70;;
23702;SDS011;12030;50.376;8.762;2023-07-22T14:25:40;5.73;;;2.80;;
23702;SDS011;12030;50.376;8.762;2023-07-22T14:28:06;3.80;;;2.60;;
23702;SDS011;12030;50.376;8.762;2023-07-22T14:30:32;4.97;;;2.47;;
23702;SDS011;12030;50.376;8.762;2023-07-22T14:32:58;3.97;;;2.42;;
23702;SDS011;12030;50.376;8.762;2023-07-22T14:35:23;3.53;;;2.60;;
23702;SDS011;12030;50.376;8.762;2023-07-22T14:37:49;3.70;;;2.90;;
23702;SDS011;12030;50.376;8.762;2023-07-22T14:40:14;3.40;;;2.43;;
23702;SDS011;12030;50.376;8.762;2023-07-22T14:42:40;2.90;;;2.40;;
23702;SDS011;12030;50.376;8.762;2023-07-22T14:45:06;2.77;;;2.50;;
23702;SDS011;12030;50.376;8.762;2023-07-22T14:47:32;4.05;;;2.58;;
23702;SDS011;12030;50.376;8.762;2023-07-22T14:49:58;3.67;;;2.63;;
23702;SDS011;12030;50.376;8.762;2023-07-22T14:52:23;4.50;;;2.72;;
23702;SDS011;12030;50.376;8.762;2023-07-22T14:54:49;4.60;;;2.63;;
23702;SDS011;12030;50.376;8.762;2023-07-22T14:57:17;3.25;;;2.33;;